• Join FlightAware (Why Join?)
  • Login
  • US Flag 
02:55AM EDT


 

Airport Tracker/Info


-or-


 

Live Flight TrackerFlight Track Log ✈ N6510V ✈ 23-Jan-2014 ✈ W17 - KEQY

Flight Track Log - Related Links

Times and Time Zones

All times are in EST time to prevent confusion due to time zone crossing. See the N6510V flight status page for this flight to view local times or setup timezone preferences in your user account.

Time Position Orientation Groundspeed Altitude Reporting Facility
EST Latitude Longitude Course Direction KTS MPH feet Rate Location/Type
01:33PM 35.6928 -78.6714 249° West 125 144 6,500  Level Washington Center
01:35PM 35.6611 -78.7722 249° West 152 175 6,500  Level Washington Center
01:36PM 35.6472 -78.8178 249° West 147 169 6,500  Level Washington Center
01:37PM 35.6317 -78.8606 246° West 147 169 6,500  Level Washington Center
01:38PM 35.6156 -78.9111 249° West 145 167 6,600  Climbing Washington Center
01:59PM 35.2675 -79.9206 246° West 151 174 6,500 -60 Descending Atlanta Center
02:00PM 35.4006 -79.5354 246° West  Level FlightAware Approximate
02:00PM 35.2581 -79.9514 249° West 153 176 6,500  Level Atlanta Center
02:01PM 35.3903 -79.5644 246° West  Level FlightAware Approximate
02:01PM 35.2386 -80.0006 244° Southwest 157 181 6,500  Level Atlanta Center
02:02PM 35.3799 -79.5934 246° West  Level FlightAware Approximate
02:02PM 35.2217 -80.0497 247° West 152 175 6,500  Level Atlanta Center
02:03PM 35.3695 -79.6223 246° West  Level FlightAware Approximate
02:03PM 35.2064 -80.0964 248° West 151 174 6,500  Level Atlanta Center
02:04PM 35.3591 -79.6513 246° West  Level FlightAware Approximate
02:04PM 35.1892 -80.1453 247° West 151 174 6,500  Level Atlanta Center
02:06PM 35.1516 -80.2138 236° Southwest  Level FlightAware Approximate
02:13PM 35.0427 -80.5423 245° Southwest  Level FlightAware Approximate
02:14PM 35.0258 -80.5894 248° West  Level FlightAware Approximate
02:15PM 35.0167 -80.6167 248° West  Level FlightAware Approximate
02:16PM 35.0174 -80.6220 248° West  Level Estimated
02:17PM 35.0167 -80.6167 248° West  Level FlightAware Approximate
02:18PM 35.0174 -80.6220 248° West  Level Estimated
02:19PM 35.0167 -80.6167 248° West  Level FlightAware Approximate
02:20PM 35.0174 -80.6220 248° West  Level Estimated
02:21PM 35.0167 -80.6167 248° West  Level FlightAware Approximate
02:22PM 35.0174 -80.6220 248° West  Level Estimated
02:23PM 35.0167 -80.6167 248° West  Level FlightAware Approximate
02:24PM 35.0174 -80.6220 248° West  Level Estimated
02:25PM 35.0167 -80.6167 248° West  Level FlightAware Approximate
02:26PM 35.0174 -80.6220 248° West  Level Estimated
02:27PM 35.0167 -80.6167 248° West  Level FlightAware Approximate
02:28PM 35.0174 -80.6220 248° West  Level Estimated
02:29PM 35.0167 -80.6167 248° West  Level FlightAware Approximate
02:30PM 35.0174 -80.6220 248° West  Level Estimated
02:31PM 35.0167 -80.6167 248° West  Level FlightAware Approximate
02:32PM 35.0174 -80.6220 248° West  Level Estimated